createdAt,value
2022-10-11T00:00:08.118Z,5.82
2022-10-11T00:02:59.277Z,5.80
2022-10-11T00:05:50.931Z,5.78
2022-10-11T00:08:41.638Z,5.74
2022-10-11T00:11:34.867Z,5.69
2022-10-11T00:14:30.676Z,5.64
2022-10-11T00:17:22.773Z,5.64
2022-10-11T00:20:14.505Z,5.59
2022-10-11T00:23:05.787Z,5.60
2022-10-11T00:25:58.950Z,5.56
2022-10-11T00:28:52.102Z,5.51
2022-10-11T00:31:43.907Z,5.53
2022-10-11T00:34:36.765Z,5.46
2022-10-11T00:37:27.434Z,5.48
2022-10-11T00:40:20.541Z,5.47
2022-10-11T00:43:16.945Z,5.44
2022-10-11T00:46:27.663Z,5.42
2022-10-11T00:49:27.930Z,5.35
2022-10-11T00:52:32.025Z,5.26
2022-10-11T00:55:27.064Z,5.14
2022-10-11T00:58:19.860Z,5.08
2022-10-11T01:01:12.979Z,5.03
2022-10-11T01:04:06.585Z,5.02
2022-10-11T01:07:01.462Z,5.00
2022-10-11T01:09:52.365Z,4.97
2022-10-11T01:12:58.422Z,4.93
2022-10-11T01:15:57.164Z,4.92
2022-10-11T01:18:59.285Z,4.89
2022-10-11T01:21:57.851Z,4.81
2022-10-11T01:25:08.870Z,4.81
2022-10-11T01:28:19.773Z,4.72
2022-10-11T01:31:23.205Z,4.70
2022-10-11T01:34:22.634Z,4.72
2022-10-11T01:37:21.670Z,4.70
2022-10-11T01:40:18.021Z,4.81
2022-10-11T01:43:10.421Z,4.84
2022-10-11T01:46:04.316Z,4.88
2022-10-11T01:48:59.669Z,4.81
2022-10-11T01:51:53.916Z,4.82
2022-10-11T01:55:09.539Z,4.86
2022-10-11T01:58:09.532Z,4.90
2022-10-11T02:01:15.663Z,4.94
2022-10-11T02:04:16.635Z,4.95
2022-10-11T02:07:13.627Z,4.95
2022-10-11T02:10:13.161Z,4.94
2022-10-11T02:13:09.192Z,4.93
2022-10-11T02:16:04.785Z,4.89
2022-10-11T02:18:58.144Z,4.87
2022-10-11T02:21:54.765Z,4.85
2022-10-11T02:24:49.608Z,4.84
2022-10-11T02:27:43.123Z,4.82
2022-10-11T02:30:35.837Z,4.75
2022-10-11T02:33:33.688Z,4.72
2022-10-11T02:36:30.504Z,4.80
2022-10-11T02:39:26.191Z,4.78
2022-10-11T02:42:21.100Z,4.76
2022-10-11T02:45:18.217Z,4.67
2022-10-11T02:48:12.723Z,4.73
2022-10-11T02:51:05.040Z,4.71
2022-10-11T02:54:01.280Z,4.70
2022-10-11T02:56:52.615Z,4.57
2022-10-11T02:59:43.688Z,4.64
2022-10-11T03:02:34.829Z,4.61
2022-10-11T03:05:30.280Z,4.57
2022-10-11T03:08:22.205Z,4.60
2022-10-11T03:11:22.208Z,4.58
2022-10-11T03:14:18.431Z,4.57
2022-10-11T03:17:34.404Z,4.48
2022-10-11T03:20:24.797Z,4.48
2022-10-11T03:23:16.586Z,4.52
2022-10-11T03:26:08.654Z,4.51
2022-10-11T03:29:00.358Z,4.50
2022-10-11T03:31:51.716Z,4.43
2022-10-11T03:34:44.278Z,4.34
2022-10-11T03:37:34.605Z,4.46
2022-10-11T03:40:26.584Z,4.44
2022-10-11T03:43:18.628Z,4.43
2022-10-11T03:46:09.551Z,4.40
2022-10-11T03:49:01.113Z,4.37
2022-10-11T03:51:51.587Z,4.32
2022-10-11T03:54:42.480Z,4.32
2022-10-11T03:57:34.071Z,4.30
2022-10-11T04:00:24.689Z,4.26
2022-10-11T04:03:15.818Z,4.27
2022-10-11T04:06:08.762Z,4.40
2022-10-11T04:09:00.541Z,4.44
2022-10-11T04:11:55.148Z,4.44
2022-10-11T04:14:46.163Z,4.42
2022-10-11T04:17:37.522Z,4.39
2022-10-11T04:20:28.333Z,4.35
2022-10-11T04:23:18.805Z,4.31
2022-10-11T04:26:10.099Z,4.28
2022-10-11T04:29:01.088Z,4.25
2022-10-11T04:31:59.092Z,4.19
2022-10-11T04:34:51.501Z,4.18
2022-10-11T04:37:44.535Z,4.07
2022-10-11T04:40:37.454Z,4.20
2022-10-11T04:43:28.954Z,4.23
2022-10-11T04:46:22.596Z,4.24
2022-10-11T04:49:14.492Z,4.24
2022-10-11T04:52:04.851Z,4.22
2022-10-11T04:54:57.974Z,4.21
2022-10-11T04:57:48.485Z,4.21
2022-10-11T05:00:39.883Z,4.28
2022-10-11T05:03:33.101Z,4.30
2022-10-11T05:06:45.502Z,4.28
2022-10-11T05:09:37.414Z,4.37
2022-10-11T05:12:30.844Z,4.21
2022-10-11T05:15:24.611Z,4.29
2022-10-11T05:18:23.968Z,4.59
2022-10-11T05:21:33.164Z,4.58
2022-10-11T05:24:25.195Z,4.66
2022-10-11T05:27:17.847Z,4.74
2022-10-11T05:30:13.748Z,4.81
2022-10-11T05:33:04.429Z,4.93
2022-10-11T05:35:55.170Z,5.08
2022-10-11T05:38:48.227Z,5.20
2022-10-11T05:41:41.272Z,5.31
2022-10-11T05:44:33.000Z,5.41
2022-10-11T05:47:24.221Z,5.48
2022-10-11T05:50:19.692Z,5.48
2022-10-11T05:53:10.629Z,5.60
2022-10-11T05:56:02.365Z,5.68
2022-10-11T05:59:01.456Z,5.77
2022-10-11T06:01:56.302Z,5.84
2022-10-11T06:04:48.085Z,5.82
2022-10-11T06:07:40.261Z,6.07
2022-10-11T06:10:32.145Z,6.21
2022-10-11T06:13:24.196Z,6.29
2022-10-11T06:16:28.491Z,6.45
2022-10-11T06:19:46.207Z,6.63
2022-10-11T06:23:02.622Z,6.75
2022-10-11T06:26:11.305Z,6.82
2022-10-11T06:29:15.914Z,6.89
2022-10-11T06:32:23.781Z,6.95
2022-10-11T06:35:32.054Z,6.96
2022-10-11T06:38:39.788Z,7.01
2022-10-11T06:41:57.266Z,7.07
2022-10-11T06:45:04.801Z,7.12
2022-10-11T06:48:12.720Z,7.19
2022-10-11T06:51:23.805Z,7.24
2022-10-11T06:54:41.230Z,7.33
2022-10-11T06:57:54.918Z,7.42
2022-10-11T07:01:20.762Z,7.46
2022-10-11T07:04:27.672Z,7.68
2022-10-11T07:07:35.501Z,7.31
2022-10-11T07:10:45.444Z,7.56
2022-10-11T07:13:57.598Z,7.98
2022-10-11T07:17:19.033Z,8.05
2022-10-11T07:20:27.107Z,8.08
2022-10-11T07:23:39.372Z,8.11
2022-10-11T07:27:00.334Z,8.18
2022-10-11T07:30:05.858Z,8.21
2022-10-11T07:33:19.879Z,8.22
2022-10-11T07:36:29.455Z,8.25
2022-10-11T07:39:45.900Z,8.32
2022-10-11T07:42:50.337Z,8.35
2022-10-11T07:46:10.971Z,8.40
2022-10-11T07:49:19.323Z,8.43
2022-10-11T07:52:24.403Z,8.49
2022-10-11T07:55:35.612Z,8.52
2022-10-11T07:58:40.531Z,8.65
2022-10-11T08:01:48.196Z,8.52
2022-10-11T08:05:27.444Z,8.77
2022-10-11T08:08:47.178Z,8.75
2022-10-11T08:12:00.686Z,8.88
2022-10-11T08:15:09.263Z,9.03
2022-10-11T08:18:13.732Z,9.20
2022-10-11T08:21:27.876Z,9.28
2022-10-11T08:24:39.485Z,9.11
2022-10-11T08:27:44.349Z,9.01
2022-10-11T08:30:55.052Z,9.39
2022-10-11T08:34:05.574Z,9.44
2022-10-11T08:37:11.374Z,9.42
2022-10-11T08:40:24.479Z,9.37
2022-10-11T08:43:44.569Z,9.40
2022-10-11T08:46:21.495Z,9.39
2022-10-11T08:48:55.300Z,9.37
2022-10-11T08:51:30.958Z,9.36
2022-10-11T08:54:13.482Z,9.29
2022-10-11T08:56:46.651Z,9.37
2022-10-11T08:59:30.644Z,9.36
2022-10-11T09:02:12.755Z,9.35
2022-10-11T09:04:45.523Z,9.35
2022-10-11T09:07:28.025Z,9.40
2022-10-11T09:10:17.203Z,9.38
2022-10-11T09:12:59.204Z,9.43
2022-10-11T09:15:43.368Z,9.47
2022-10-11T09:18:31.966Z,9.48
2022-10-11T09:21:23.849Z,9.48
2022-10-11T09:24:13.350Z,9.45
2022-10-11T09:26:55.339Z,9.49
2022-10-11T09:29:46.263Z,9.49
2022-10-11T09:32:21.627Z,9.51
2022-10-11T09:35:00.130Z,9.52
2022-10-11T09:37:41.349Z,9.52
2022-10-11T09:40:27.565Z,9.53
2022-10-11T09:43:00.048Z,9.56
2022-10-11T09:45:32.508Z,9.58
2022-10-11T09:48:08.047Z,9.60
2022-10-11T09:50:40.699Z,9.54
2022-10-11T09:53:13.378Z,9.66
2022-10-11T09:55:50.869Z,9.68
2022-10-11T09:58:29.828Z,9.70
2022-10-11T10:01:08.253Z,9.72
2022-10-11T10:03:43.949Z,9.71
2022-10-11T10:06:22.261Z,9.78
2022-10-11T10:08:55.987Z,9.79
2022-10-11T10:11:37.436Z,9.85
2022-10-11T10:14:20.561Z,9.85
2022-10-11T10:17:02.832Z,9.90
2022-10-11T10:19:45.044Z,9.90
2022-10-11T10:22:20.638Z,9.84
2022-10-11T10:24:56.674Z,9.94
2022-10-11T10:27:30.671Z,10.00
2022-10-11T10:30:13.849Z,9.99
2022-10-11T10:32:53.453Z,10.08
2022-10-11T10:35:37.198Z,10.00
2022-10-11T10:38:16.678Z,10.15
2022-10-11T10:40:54.265Z,10.15
2022-10-11T10:43:33.398Z,10.21
2022-10-11T10:46:31.098Z,10.23
2022-10-11T10:52:40.154Z,10.30
2022-10-11T10:55:22.948Z,10.32
2022-10-11T10:58:21.174Z,10.34
2022-10-11T11:01:00.117Z,10.27
2022-10-11T11:03:44.928Z,10.28
2022-10-11T11:06:26.585Z,10.41
2022-10-11T11:09:19.786Z,10.42
2022-10-11T11:12:01.510Z,10.46
2022-10-11T11:14:47.741Z,10.47
2022-10-11T11:17:29.228Z,10.50
2022-10-11T11:20:15.879Z,10.53
2022-10-11T11:22:55.783Z,10.55
2022-10-11T11:25:44.847Z,10.56
2022-10-11T11:28:40.198Z,10.60
2022-10-11T11:31:27.098Z,10.62
2022-10-11T11:34:11.669Z,10.63
2022-10-11T11:36:48.115Z,10.65
2022-10-11T11:39:24.051Z,10.66
2022-10-11T11:42:04.513Z,10.67
2022-10-11T11:44:40.598Z,10.71
2022-10-11T11:47:19.282Z,10.71
2022-10-11T11:50:01.756Z,10.75
2022-10-11T11:52:40.180Z,10.78
2022-10-11T11:55:17.679Z,10.76
2022-10-11T11:58:06.983Z,10.82
2022-10-11T12:00:50.119Z,10.84
2022-10-11T12:03:28.012Z,10.79
2022-10-11T12:06:21.217Z,10.87
2022-10-11T12:09:08.141Z,10.85
2022-10-11T12:11:53.041Z,10.88
2022-10-11T12:14:35.091Z,10.88
2022-10-11T12:17:14.933Z,10.58
2022-10-11T12:20:14.998Z,10.90
2022-10-11T12:23:00.786Z,10.40
2022-10-11T12:25:43.943Z,10.44
2022-10-11T12:28:59.664Z,10.51
2022-10-11T12:31:36.904Z,10.82
2022-10-11T12:34:35.395Z,10.68
2022-10-11T12:37:51.181Z,10.95
2022-10-11T12:40:41.922Z,10.95
2022-10-11T12:43:30.877Z,10.94
2022-10-11T12:46:40.603Z,10.95
2022-10-11T12:49:25.956Z,10.88
2022-10-11T12:52:01.500Z,10.90
2022-10-11T12:55:00.705Z,10.95
2022-10-11T12:58:04.395Z,10.94
2022-10-11T13:00:43.782Z,10.91
2022-10-11T13:03:32.588Z,10.91
2022-10-11T13:06:15.858Z,10.93
2022-10-11T13:08:53.354Z,10.93
2022-10-11T13:11:32.058Z,10.95
2022-10-11T13:14:11.755Z,10.96
2022-10-11T13:16:58.801Z,10.96
2022-10-11T13:19:34.425Z,10.88
2022-10-11T13:22:17.382Z,10.95
2022-10-11T13:24:50.402Z,10.91
2022-10-11T13:27:26.455Z,10.90
2022-10-11T13:30:02.263Z,10.91
2022-10-11T13:32:37.175Z,10.90
2022-10-11T13:35:19.831Z,10.82
2022-10-11T13:37:55.287Z,10.70
2022-10-11T13:40:29.568Z,10.87
2022-10-11T13:43:05.745Z,10.87
2022-10-11T13:45:41.439Z,10.85
2022-10-11T13:48:16.573Z,10.87
2022-10-11T13:51:09.262Z,10.84
2022-10-11T13:53:57.664Z,10.83
2022-10-11T13:56:35.106Z,10.74
2022-10-11T13:59:08.026Z,10.82
2022-10-11T14:01:44.422Z,10.80
2022-10-11T14:04:17.653Z,10.75
2022-10-11T14:06:56.555Z,10.69
2022-10-11T14:09:32.274Z,10.62
2022-10-11T14:12:33.116Z,10.71
2022-10-11T14:15:24.504Z,10.70
2022-10-11T14:17:58.602Z,10.67
2022-10-11T14:20:40.958Z,10.66
2022-10-11T14:23:14.801Z,10.63
2022-10-11T14:25:47.256Z,10.60
2022-10-11T14:28:19.742Z,10.52
2022-10-11T14:30:55.147Z,10.47
2022-10-11T14:33:28.289Z,10.33
2022-10-11T14:36:00.903Z,10.36
2022-10-11T14:38:34.775Z,10.26
2022-10-11T14:41:07.385Z,10.15
2022-10-11T14:43:39.816Z,10.09
2022-10-11T14:46:22.580Z,10.09
2022-10-11T14:48:56.491Z,9.95
2022-10-11T14:51:34.991Z,9.97
2022-10-11T14:54:09.245Z,9.87
2022-10-11T14:56:42.019Z,9.83
2022-10-11T14:59:16.421Z,9.73
2022-10-11T15:01:54.116Z,9.67
2022-10-11T15:04:27.907Z,9.56
2022-10-11T15:07:00.906Z,9.40
2022-10-11T15:09:38.199Z,9.39
2022-10-11T15:12:10.927Z,9.34
2022-10-11T15:14:43.315Z,9.28
2022-10-11T15:17:15.867Z,9.22
2022-10-11T15:19:48.533Z,9.08
2022-10-11T15:22:21.170Z,9.04
2022-10-11T15:24:55.389Z,8.93
2022-10-11T15:27:28.940Z,8.92
2022-10-11T15:30:01.473Z,8.86
2022-10-11T15:32:35.955Z,8.82
2022-10-11T15:35:10.569Z,8.69
2022-10-11T15:37:43.654Z,8.71
2022-10-11T15:40:22.089Z,8.64
2022-10-11T15:42:55.372Z,8.63
2022-10-11T15:45:29.202Z,8.52
2022-10-11T15:48:02.319Z,8.51
2022-10-11T15:50:41.588Z,8.43
2022-10-11T15:53:16.548Z,8.37
2022-10-11T15:55:52.694Z,8.31
2022-10-11T15:58:30.358Z,8.20
2022-10-11T16:01:06.245Z,8.16
2022-10-11T16:03:39.377Z,8.10
2022-10-11T16:06:12.521Z,8.01
2022-10-11T16:08:46.470Z,7.92
2022-10-11T16:11:20.997Z,7.85
2022-10-11T16:13:53.648Z,7.78
2022-10-11T16:16:26.063Z,7.71
2022-10-11T16:18:58.962Z,7.66
2022-10-11T16:21:31.625Z,7.60
2022-10-11T16:24:15.176Z,7.55
2022-10-11T16:26:49.282Z,7.59
2022-10-11T16:29:22.246Z,7.49
2022-10-11T16:31:55.054Z,7.44
2022-10-11T16:34:27.884Z,7.34
2022-10-11T16:37:00.719Z,7.26
2022-10-11T16:39:40.324Z,7.11
2022-10-11T16:42:14.248Z,7.10
2022-10-11T16:44:46.817Z,7.02
2022-10-11T16:47:19.592Z,7.02
2022-10-11T16:49:52.191Z,6.96
2022-10-11T16:52:24.723Z,6.84
2022-10-11T16:54:57.387Z,6.78
2022-10-11T16:57:31.554Z,6.73
2022-10-11T17:00:06.665Z,6.64
2022-10-11T17:02:42.189Z,6.59
2022-10-11T17:05:14.808Z,6.43
2022-10-11T17:07:47.222Z,6.49
2022-10-11T17:10:39.434Z,6.40
2022-10-11T17:13:14.561Z,6.21
2022-10-11T17:15:47.825Z,6.30
2022-10-11T17:18:20.487Z,6.20
2022-10-11T17:21:01.326Z,6.17
2022-10-11T17:23:34.383Z,6.17
2022-10-11T17:26:11.361Z,6.12
2022-10-11T17:28:45.726Z,6.12
2022-10-11T17:31:18.654Z,6.06
2022-10-11T17:33:53.303Z,5.90
2022-10-11T17:36:30.674Z,5.92
2022-10-11T17:39:07.485Z,5.78
2022-10-11T17:41:40.768Z,5.90
2022-10-11T17:44:17.502Z,5.84
2022-10-11T17:46:51.400Z,5.64
2022-10-11T17:49:24.884Z,5.70
2022-10-11T17:51:57.429Z,5.63
2022-10-11T17:54:30.372Z,5.50
2022-10-11T17:57:03.894Z,5.55
2022-10-11T17:59:40.165Z,5.47
2022-10-11T18:02:14.781Z,5.41
2022-10-11T18:04:47.601Z,5.51
2022-10-11T18:07:20.248Z,5.39
2022-10-11T18:09:52.734Z,5.45
2022-10-11T18:12:26.288Z,5.46
2022-10-11T18:15:00.207Z,5.39
2022-10-11T18:17:32.824Z,5.26
2022-10-11T18:20:06.233Z,5.31
2022-10-11T18:22:39.026Z,5.14
2022-10-11T18:25:11.564Z,5.23
2022-10-11T18:27:44.328Z,5.15
2022-10-11T18:30:18.769Z,5.11
2022-10-11T18:32:51.609Z,4.82
2022-10-11T18:35:24.053Z,4.94
2022-10-11T18:38:00.794Z,5.01
2022-10-11T18:40:37.315Z,4.95
2022-10-11T18:43:09.913Z,4.59
2022-10-11T18:45:43.819Z,4.78
2022-10-11T18:48:16.840Z,4.65
2022-10-11T18:50:50.428Z,4.40
2022-10-11T18:57:03.292Z,4.73
2022-10-11T18:59:36.448Z,4.70
2022-10-11T19:02:12.238Z,4.65
2022-10-11T19:04:52.705Z,4.60
2022-10-11T19:07:25.690Z,4.45
2022-10-11T19:09:58.290Z,4.57
2022-10-11T19:12:30.690Z,4.47
2022-10-11T19:15:03.596Z,4.54
2022-10-11T19:17:37.611Z,4.18
2022-10-11T19:20:11.005Z,4.41
2022-10-11T19:22:43.554Z,4.38
2022-10-11T19:25:16.186Z,4.45
2022-10-11T19:27:48.731Z,4.41
2022-10-11T19:30:24.764Z,4.23
2022-10-11T19:32:58.595Z,4.24
2022-10-11T19:35:31.714Z,4.10
2022-10-11T19:38:04.400Z,3.89
2022-10-11T19:40:37.263Z,4.08
2022-10-11T19:43:09.733Z,4.02
2022-10-11T19:45:42.311Z,4.04
2022-10-11T19:48:16.206Z,4.05
2022-10-11T19:50:48.815Z,3.95
2022-10-11T19:53:21.225Z,3.93
2022-10-11T19:55:53.810Z,3.95
2022-10-11T19:58:26.374Z,3.92
2022-10-11T20:01:04.253Z,3.99
2022-10-11T20:03:39.023Z,4.08
2022-10-11T20:06:12.428Z,4.08
2022-10-11T20:08:45.961Z,3.97
2022-10-11T20:11:20.793Z,3.94
2022-10-11T20:13:54.605Z,3.94
2022-10-11T20:16:28.612Z,3.77
2022-10-11T20:19:02.676Z,3.83
2022-10-11T20:21:35.228Z,3.77
2022-10-11T20:24:08.731Z,3.78
2022-10-11T20:26:41.328Z,3.71
2022-10-11T20:29:13.867Z,3.64
2022-10-11T20:31:46.511Z,3.65
2022-10-11T20:34:20.357Z,3.70
2022-10-11T20:36:52.901Z,3.66
2022-10-11T20:39:27.205Z,3.69
2022-10-11T20:41:59.939Z,3.63
2022-10-11T20:44:32.304Z,3.63
2022-10-11T20:47:04.933Z,3.65
2022-10-11T20:49:38.948Z,3.62
2022-10-11T20:52:11.484Z,3.56
2022-10-11T20:54:44.004Z,3.56
2022-10-11T20:57:16.593Z,3.58
2022-10-11T20:59:49.047Z,3.46
2022-10-11T21:02:21.669Z,3.56
2022-10-11T21:04:55.502Z,3.59
2022-10-11T21:07:27.977Z,3.50
2022-10-11T21:10:00.519Z,3.57
2022-10-11T21:12:33.720Z,3.57
2022-10-11T21:15:09.484Z,3.55
2022-10-11T21:17:42.132Z,3.54
2022-10-11T21:20:16.266Z,3.52
2022-10-11T21:22:48.869Z,3.42
2022-10-11T21:25:21.700Z,3.39
2022-10-11T21:27:54.209Z,3.28
2022-10-11T21:30:26.679Z,3.38
2022-10-11T21:32:59.486Z,3.33
2022-10-11T21:35:33.298Z,3.27
2022-10-11T21:38:05.882Z,3.25
2022-10-11T21:40:39.314Z,3.22
2022-10-11T21:43:12.171Z,3.19
2022-10-11T21:45:44.601Z,3.13
2022-10-11T21:48:19.773Z,2.93
2022-10-11T21:50:54.678Z,3.00
2022-10-11T21:53:27.304Z,3.17
2022-10-11T21:56:00.355Z,3.19
2022-10-11T21:58:32.800Z,3.13
2022-10-11T22:01:06.196Z,3.16
2022-10-11T22:03:38.889Z,3.01
2022-10-11T22:06:13.199Z,3.06
2022-10-11T22:08:45.818Z,3.01
2022-10-11T22:11:18.440Z,2.96
2022-10-11T22:13:51.032Z,2.87
2022-10-11T22:16:23.595Z,2.91
2022-10-11T22:18:56.191Z,2.88
2022-10-11T22:21:30.324Z,2.86
2022-10-11T22:24:03.152Z,2.82
2022-10-11T22:26:35.821Z,2.81
2022-10-11T22:29:08.462Z,2.85
2022-10-11T22:31:41.427Z,2.80
2022-10-11T22:34:14.079Z,2.64
2022-10-11T22:36:48.009Z,2.77
2022-10-11T22:39:20.445Z,2.64
2022-10-11T22:41:54.124Z,2.71
2022-10-11T22:44:26.685Z,2.63
2022-10-11T22:46:59.029Z,2.71
2022-10-11T22:49:31.564Z,2.73
2022-10-11T22:52:05.634Z,2.62
2022-10-11T22:54:38.261Z,2.71
2022-10-11T22:57:10.701Z,2.70
2022-10-11T22:59:43.336Z,2.58
2022-10-11T23:02:15.866Z,2.67
2022-10-11T23:04:48.504Z,2.57
2022-10-11T23:07:22.338Z,2.32
2022-10-11T23:09:54.869Z,2.65
2022-10-11T23:12:27.383Z,2.37
2022-10-11T23:15:00.118Z,2.60
2022-10-11T23:17:32.535Z,2.58
2022-10-11T23:20:06.186Z,2.60
2022-10-11T23:22:40.106Z,2.47
2022-10-11T23:25:12.825Z,2.44
2022-10-11T23:27:45.241Z,2.49
2022-10-11T23:30:17.955Z,2.37
2022-10-11T23:32:50.493Z,2.52
2022-10-11T23:35:23.511Z,2.49
2022-10-11T23:37:57.342Z,2.46
2022-10-11T23:40:29.854Z,2.39
2022-10-11T23:43:02.428Z,2.43
2022-10-11T23:45:35.137Z,2.28
2022-10-11T23:48:07.490Z,2.25
2022-10-11T23:50:40.065Z,2.31
2022-10-11T23:53:13.989Z,2.37
2022-10-11T23:55:46.615Z,2.30
2022-10-11T23:58:19.015Z,2.04
